sensor_id;sensor_type;location;lat;lon;timestamp;P1;durP1;ratioP1;P2;durP2;ratioP2
75818;SDS011;64453;51.944;9.796;2023-03-01T00:00:04;5.03;;;4.73;;
75818;SDS011;64453;51.944;9.796;2023-03-01T00:02:33;5.07;;;4.63;;
75818;SDS011;64453;51.944;9.796;2023-03-01T00:04:59;5.10;;;4.70;;
75818;SDS011;64453;51.944;9.796;2023-03-01T00:07:28;5.57;;;5.17;;
75818;SDS011;64453;51.944;9.796;2023-03-01T00:09:55;5.73;;;5.23;;
75818;SDS011;64453;51.944;9.796;2023-03-01T00:12:22;5.00;;;4.70;;
75818;SDS011;64453;51.944;9.796;2023-03-01T00:14:49;5.50;;;5.10;;
75818;SDS011;64453;51.944;9.796;2023-03-01T00:17:16;5.80;;;5.40;;
75818;SDS011;64453;51.944;9.796;2023-03-01T00:19:43;4.90;;;4.57;;
75818;SDS011;64453;51.944;9.796;2023-03-01T00:22:09;5.40;;;5.00;;
75818;SDS011;64453;51.944;9.796;2023-03-01T00:24:37;5.63;;;5.33;;
75818;SDS011;64453;51.944;9.796;2023-03-01T00:27:04;5.07;;;4.67;;
75818;SDS011;64453;51.944;9.796;2023-03-01T00:29:31;5.63;;;5.20;;
75818;SDS011;64453;51.944;9.796;2023-03-01T00:31:58;5.47;;;5.03;;
75818;SDS011;64453;51.944;9.796;2023-03-01T00:34:25;5.07;;;4.70;;
75818;SDS011;64453;51.944;9.796;2023-03-01T00:36:52;5.63;;;5.07;;
75818;SDS011;64453;51.944;9.796;2023-03-01T00:39:19;5.70;;;4.53;;
75818;SDS011;64453;51.944;9.796;2023-03-01T00:41:47;5.07;;;4.77;;
75818;SDS011;64453;51.944;9.796;2023-03-01T00:44:14;5.10;;;4.80;;
75818;SDS011;64453;51.944;9.796;2023-03-01T00:46:41;4.97;;;4.67;;
75818;SDS011;64453;51.944;9.796;2023-03-01T00:49:08;5.57;;;5.20;;
75818;SDS011;64453;51.944;9.796;2023-03-01T00:51:34;5.90;;;5.37;;
75818;SDS011;64453;51.944;9.796;2023-03-01T00:54:01;5.10;;;4.70;;
75818;SDS011;64453;51.944;9.796;2023-03-01T00:56:29;5.47;;;5.07;;
75818;SDS011;64453;51.944;9.796;2023-03-01T00:58:58;4.90;;;4.60;;
75818;SDS011;64453;51.944;9.796;2023-03-01T01:01:25;5.20;;;4.70;;
75818;SDS011;64453;51.944;9.796;2023-03-01T01:03:56;5.37;;;4.97;;
75818;SDS011;64453;51.944;9.796;2023-03-01T01:06:25;4.57;;;4.33;;
75818;SDS011;64453;51.944;9.796;2023-03-01T01:08:54;5.20;;;4.70;;
75818;SDS011;64453;51.944;9.796;2023-03-01T01:11:26;5.40;;;5.00;;
75818;SDS011;64453;51.944;9.796;2023-03-01T01:13:54;5.23;;;4.77;;
75818;SDS011;64453;51.944;9.796;2023-03-01T01:16:24;5.00;;;4.70;;
75818;SDS011;64453;51.944;9.796;2023-03-01T01:18:53;5.27;;;4.90;;
75818;SDS011;64453;51.944;9.796;2023-03-01T01:21:21;5.07;;;4.77;;
75818;SDS011;64453;51.944;9.796;2023-03-01T01:23:50;5.70;;;5.20;;
75818;SDS011;64453;51.944;9.796;2023-03-01T01:26:18;5.17;;;4.77;;
75818;SDS011;64453;51.944;9.796;2023-03-01T01:28:48;5.03;;;4.63;;
75818;SDS011;64453;51.944;9.796;2023-03-01T01:31:17;5.13;;;4.70;;
75818;SDS011;64453;51.944;9.796;2023-03-01T01:33:45;5.80;;;5.30;;
75818;SDS011;64453;51.944;9.796;2023-03-01T01:36:12;5.03;;;4.73;;
75818;SDS011;64453;51.944;9.796;2023-03-01T01:38:39;5.33;;;4.93;;
75818;SDS011;64453;51.944;9.796;2023-03-01T01:41:08;5.70;;;5.30;;
75818;SDS011;64453;51.944;9.796;2023-03-01T01:43:38;7.00;;;4.83;;
75818;SDS011;64453;51.944;9.796;2023-03-01T01:46:10;5.90;;;5.50;;
75818;SDS011;64453;51.944;9.796;2023-03-01T01:48:52;5.30;;;4.80;;
75818;SDS011;64453;51.944;9.796;2023-03-01T01:51:24;5.00;;;4.70;;
75818;SDS011;64453;51.944;9.796;2023-03-01T01:53:55;6.10;;;5.60;;
75818;SDS011;64453;51.944;9.796;2023-03-01T01:56:25;4.70;;;4.40;;
75818;SDS011;64453;51.944;9.796;2023-03-01T01:58:55;4.83;;;4.53;;
75818;SDS011;64453;51.944;9.796;2023-03-01T02:01:23;4.97;;;4.03;;
75818;SDS011;64453;51.944;9.796;2023-03-01T02:03:51;4.70;;;4.40;;
75818;SDS011;64453;51.944;9.796;2023-03-01T02:06:19;5.17;;;4.77;;
75818;SDS011;64453;51.944;9.796;2023-03-01T02:08:53;5.60;;;5.20;;
75818;SDS011;64453;51.944;9.796;2023-03-01T02:11:23;5.20;;;4.80;;
75818;SDS011;64453;51.944;9.796;2023-03-01T02:13:51;5.60;;;5.10;;
75818;SDS011;64453;51.944;9.796;2023-03-01T02:16:20;5.37;;;5.03;;
75818;SDS011;64453;51.944;9.796;2023-03-01T02:18:48;4.40;;;4.13;;
75818;SDS011;64453;51.944;9.796;2023-03-01T02:21:26;4.93;;;4.53;;
75818;SDS011;64453;51.944;9.796;2023-03-01T02:24:05;4.23;;;4.03;;
75818;SDS011;64453;51.944;9.796;2023-03-01T02:26:45;4.90;;;4.60;;
75818;SDS011;64453;51.944;9.796;2023-03-01T02:29:16;4.70;;;4.40;;
75818;SDS011;64453;51.944;9.796;2023-03-01T02:31:43;5.97;;;5.50;;
75818;SDS011;64453;51.944;9.796;2023-03-01T02:34:12;7.10;;;6.50;;
75818;SDS011;64453;51.944;9.796;2023-03-01T02:36:42;5.90;;;5.50;;
75818;SDS011;64453;51.944;9.796;2023-03-01T02:39:13;6.03;;;5.63;;
75818;SDS011;64453;51.944;9.796;2023-03-01T02:41:44;5.90;;;5.43;;
75818;SDS011;64453;51.944;9.796;2023-03-01T02:44:17;5.30;;;4.90;;
75818;SDS011;64453;51.944;9.796;2023-03-01T02:46:46;5.17;;;4.77;;
75818;SDS011;64453;51.944;9.796;2023-03-01T02:49:19;5.30;;;4.90;;
75818;SDS011;64453;51.944;9.796;2023-03-01T02:51:52;5.33;;;4.93;;
75818;SDS011;64453;51.944;9.796;2023-03-01T02:54:51;4.77;;;4.50;;
75818;SDS011;64453;51.944;9.796;2023-03-01T02:57:25;5.60;;;5.17;;
75818;SDS011;64453;51.944;9.796;2023-03-01T02:59:56;5.80;;;5.33;;
75818;SDS011;64453;51.944;9.796;2023-03-01T03:02:27;4.80;;;4.40;;
75818;SDS011;64453;51.944;9.796;2023-03-01T03:05:03;4.97;;;4.67;;
75818;SDS011;64453;51.944;9.796;2023-03-01T03:07:34;4.73;;;4.43;;
75818;SDS011;64453;51.944;9.796;2023-03-01T03:10:03;5.60;;;5.20;;
75818;SDS011;64453;51.944;9.796;2023-03-01T03:12:32;4.90;;;4.60;;
75818;SDS011;64453;51.944;9.796;2023-03-01T03:15:00;5.10;;;4.70;;
75818;SDS011;64453;51.944;9.796;2023-03-01T03:17:33;5.30;;;4.90;;
75818;SDS011;64453;51.944;9.796;2023-03-01T03:20:00;4.80;;;4.50;;
75818;SDS011;64453;51.944;9.796;2023-03-01T03:22:28;5.20;;;4.80;;
75818;SDS011;64453;51.944;9.796;2023-03-01T03:24:55;5.60;;;5.20;;
75818;SDS011;64453;51.944;9.796;2023-03-01T03:27:22;5.10;;;4.70;;
75818;SDS011;64453;51.944;9.796;2023-03-01T03:29:49;5.57;;;5.10;;
75818;SDS011;64453;51.944;9.796;2023-03-01T03:32:17;5.43;;;5.03;;
75818;SDS011;64453;51.944;9.796;2023-03-01T03:34:44;5.27;;;4.97;;
75818;SDS011;64453;51.944;9.796;2023-03-01T03:37:10;4.77;;;4.47;;
75818;SDS011;64453;51.944;9.796;2023-03-01T03:39:51;4.87;;;4.57;;
75818;SDS011;64453;51.944;9.796;2023-03-01T03:42:19;5.30;;;4.80;;
75818;SDS011;64453;51.944;9.796;2023-03-01T03:44:46;4.97;;;4.57;;
75818;SDS011;64453;51.944;9.796;2023-03-01T03:47:13;4.70;;;4.30;;
75818;SDS011;64453;51.944;9.796;2023-03-01T03:49:41;5.03;;;4.73;;
75818;SDS011;64453;51.944;9.796;2023-03-01T03:52:08;4.80;;;4.50;;
75818;SDS011;64453;51.944;9.796;2023-03-01T03:54:38;5.60;;;5.10;;
75818;SDS011;64453;51.944;9.796;2023-03-01T03:57:06;5.23;;;4.83;;
75818;SDS011;64453;51.944;9.796;2023-03-01T03:59:33;4.70;;;4.40;;
75818;SDS011;64453;51.944;9.796;2023-03-01T04:01:59;4.33;;;4.13;;
75818;SDS011;64453;51.944;9.796;2023-03-01T04:04:26;4.90;;;4.60;;
75818;SDS011;64453;51.944;9.796;2023-03-01T04:06:54;5.27;;;4.90;;
75818;SDS011;64453;51.944;9.796;2023-03-01T04:09:21;5.17;;;4.77;;
75818;SDS011;64453;51.944;9.796;2023-03-01T04:11:48;5.70;;;4.43;;
75818;SDS011;64453;51.944;9.796;2023-03-01T04:14:14;5.07;;;4.67;;
75818;SDS011;64453;51.944;9.796;2023-03-01T04:16:41;5.40;;;4.97;;
75818;SDS011;64453;51.944;9.796;2023-03-01T04:19:08;4.97;;;4.67;;
75818;SDS011;64453;51.944;9.796;2023-03-01T04:21:35;5.20;;;4.80;;
75818;SDS011;64453;51.944;9.796;2023-03-01T04:24:03;5.17;;;4.87;;
75818;SDS011;64453;51.944;9.796;2023-03-01T04:26:31;5.03;;;4.73;;
75818;SDS011;64453;51.944;9.796;2023-03-01T04:28:59;5.50;;;5.10;;
75818;SDS011;64453;51.944;9.796;2023-03-01T04:31:26;5.20;;;4.90;;
75818;SDS011;64453;51.944;9.796;2023-03-01T04:33:54;4.97;;;4.60;;
75818;SDS011;64453;51.944;9.796;2023-03-01T04:36:22;5.07;;;4.73;;
75818;SDS011;64453;51.944;9.796;2023-03-01T04:38:51;4.47;;;4.17;;
75818;SDS011;64453;51.944;9.796;2023-03-01T04:41:20;4.83;;;4.53;;
75818;SDS011;64453;51.944;9.796;2023-03-01T04:43:48;4.93;;;4.50;;
75818;SDS011;64453;51.944;9.796;2023-03-01T04:46:16;4.60;;;4.30;;
75818;SDS011;64453;51.944;9.796;2023-03-01T04:48:45;5.27;;;4.87;;
75818;SDS011;64453;51.944;9.796;2023-03-01T04:51:13;5.07;;;4.77;;
75818;SDS011;64453;51.944;9.796;2023-03-01T04:53:41;5.23;;;4.33;;
75818;SDS011;64453;51.944;9.796;2023-03-01T04:56:09;4.73;;;4.43;;
75818;SDS011;64453;51.944;9.796;2023-03-01T04:58:37;4.90;;;4.50;;
75818;SDS011;64453;51.944;9.796;2023-03-01T05:01:07;5.00;;;4.60;;
75818;SDS011;64453;51.944;9.796;2023-03-01T05:03:40;4.83;;;4.53;;
75818;SDS011;64453;51.944;9.796;2023-03-01T05:06:08;4.60;;;4.30;;
75818;SDS011;64453;51.944;9.796;2023-03-01T05:08:36;4.77;;;4.47;;
75818;SDS011;64453;51.944;9.796;2023-03-01T05:11:03;4.83;;;4.43;;
75818;SDS011;64453;51.944;9.796;2023-03-01T05:13:34;5.17;;;4.50;;
75818;SDS011;64453;51.944;9.796;2023-03-01T05:16:03;4.83;;;4.50;;
75818;SDS011;64453;51.944;9.796;2023-03-01T05:18:36;4.43;;;4.13;;
75818;SDS011;64453;51.944;9.796;2023-03-01T05:21:03;4.70;;;4.40;;
75818;SDS011;64453;51.944;9.796;2023-03-01T05:23:33;4.60;;;4.30;;
75818;SDS011;64453;51.944;9.796;2023-03-01T05:26:01;5.17;;;4.70;;
75818;SDS011;64453;51.944;9.796;2023-03-01T05:28:31;4.90;;;4.50;;
75818;SDS011;64453;51.944;9.796;2023-03-01T05:31:00;4.80;;;4.40;;
75818;SDS011;64453;51.944;9.796;2023-03-01T05:33:27;5.07;;;4.67;;
75818;SDS011;64453;51.944;9.796;2023-03-01T05:35:54;4.83;;;4.53;;
75818;SDS011;64453;51.944;9.796;2023-03-01T05:38:25;5.40;;;5.00;;
75818;SDS011;64453;51.944;9.796;2023-03-01T05:40:52;5.43;;;4.93;;
75818;SDS011;64453;51.944;9.796;2023-03-01T05:43:18;4.93;;;4.60;;
75818;SDS011;64453;51.944;9.796;2023-03-01T05:45:45;4.97;;;4.67;;
75818;SDS011;64453;51.944;9.796;2023-03-01T05:48:13;5.90;;;5.40;;
75818;SDS011;64453;51.944;9.796;2023-03-01T05:50:41;5.80;;;5.30;;
75818;SDS011;64453;51.944;9.796;2023-03-01T05:53:10;5.50;;;5.00;;
75818;SDS011;64453;51.944;9.796;2023-03-01T05:55:38;5.57;;;5.17;;
75818;SDS011;64453;51.944;9.796;2023-03-01T05:58:06;5.30;;;4.80;;
75818;SDS011;64453;51.944;9.796;2023-03-01T06:00:37;6.47;;;5.87;;
75818;SDS011;64453;51.944;9.796;2023-03-01T06:03:04;4.90;;;4.60;;
75818;SDS011;64453;51.944;9.796;2023-03-01T06:05:32;4.53;;;4.23;;
75818;SDS011;64453;51.944;9.796;2023-03-01T06:07:59;9.33;;;8.40;;
75818;SDS011;64453;51.944;9.796;2023-03-01T06:10:26;15.73;;;13.77;;
75818;SDS011;64453;51.944;9.796;2023-03-01T06:12:54;8.17;;;7.37;;
75818;SDS011;64453;51.944;9.796;2023-03-01T06:15:21;6.20;;;5.67;;
75818;SDS011;64453;51.944;9.796;2023-03-01T06:17:49;5.00;;;4.70;;
75818;SDS011;64453;51.944;9.796;2023-03-01T06:20:17;6.63;;;6.17;;
75818;SDS011;64453;51.944;9.796;2023-03-01T06:22:48;6.20;;;5.70;;
75818;SDS011;64453;51.944;9.796;2023-03-01T06:25:16;7.60;;;6.80;;
75818;SDS011;64453;51.944;9.796;2023-03-01T06:27:46;8.40;;;7.60;;
75818;SDS011;64453;51.944;9.796;2023-03-01T06:30:15;8.30;;;7.50;;
75818;SDS011;64453;51.944;9.796;2023-03-01T06:32:43;6.47;;;5.97;;
75818;SDS011;64453;51.944;9.796;2023-03-01T06:35:11;6.40;;;5.90;;
75818;SDS011;64453;51.944;9.796;2023-03-01T06:37:42;6.27;;;5.77;;
75818;SDS011;64453;51.944;9.796;2023-03-01T06:40:12;6.60;;;6.00;;
75818;SDS011;64453;51.944;9.796;2023-03-01T06:42:40;7.37;;;6.77;;
75818;SDS011;64453;51.944;9.796;2023-03-01T06:45:09;6.00;;;5.60;;
75818;SDS011;64453;51.944;9.796;2023-03-01T06:47:37;7.80;;;7.10;;
75818;SDS011;64453;51.944;9.796;2023-03-01T06:50:04;6.30;;;5.80;;
75818;SDS011;64453;51.944;9.796;2023-03-01T06:52:32;7.23;;;6.63;;
75818;SDS011;64453;51.944;9.796;2023-03-01T06:54:59;8.13;;;7.50;;
75818;SDS011;64453;51.944;9.796;2023-03-01T06:57:27;7.63;;;6.93;;
75818;SDS011;64453;51.944;9.796;2023-03-01T06:59:54;7.30;;;6.70;;
75818;SDS011;64453;51.944;9.796;2023-03-01T07:02:21;6.83;;;6.30;;
75818;SDS011;64453;51.944;9.796;2023-03-01T07:04:49;7.10;;;6.60;;
75818;SDS011;64453;51.944;9.796;2023-03-01T07:07:16;7.60;;;6.90;;
75818;SDS011;64453;51.944;9.796;2023-03-01T07:09:44;7.83;;;7.13;;
75818;SDS011;64453;51.944;9.796;2023-03-01T07:12:11;7.93;;;7.23;;
75818;SDS011;64453;51.944;9.796;2023-03-01T07:14:39;7.10;;;6.60;;
75818;SDS011;64453;51.944;9.796;2023-03-01T07:17:06;7.60;;;6.90;;
75818;SDS011;64453;51.944;9.796;2023-03-01T07:19:33;9.07;;;8.17;;
75818;SDS011;64453;51.944;9.796;2023-03-01T07:22:00;7.87;;;7.17;;
75818;SDS011;64453;51.944;9.796;2023-03-01T07:24:27;8.40;;;7.70;;
75818;SDS011;64453;51.944;9.796;2023-03-01T07:26:54;9.80;;;9.00;;
75818;SDS011;64453;51.944;9.796;2023-03-01T07:29:21;9.90;;;9.00;;
75818;SDS011;64453;51.944;9.796;2023-03-01T07:31:49;9.70;;;8.80;;
75818;SDS011;64453;51.944;9.796;2023-03-01T07:34:16;11.37;;;10.17;;
75818;SDS011;64453;51.944;9.796;2023-03-01T07:36:43;11.40;;;10.30;;
75818;SDS011;64453;51.944;9.796;2023-03-01T07:39:10;11.30;;;10.20;;
75818;SDS011;64453;51.944;9.796;2023-03-01T07:41:37;10.63;;;9.70;;
75818;SDS011;64453;51.944;9.796;2023-03-01T07:44:04;12.17;;;10.97;;
75818;SDS011;64453;51.944;9.796;2023-03-01T07:46:31;10.87;;;9.87;;
75818;SDS011;64453;51.944;9.796;2023-03-01T07:49:00;10.87;;;9.90;;
75818;SDS011;64453;51.944;9.796;2023-03-01T07:51:26;10.50;;;9.50;;
75818;SDS011;64453;51.944;9.796;2023-03-01T07:53:53;9.37;;;8.57;;
75818;SDS011;64453;51.944;9.796;2023-03-01T07:56:20;9.90;;;9.00;;
75818;SDS011;64453;51.944;9.796;2023-03-01T07:58:47;10.67;;;9.77;;
75818;SDS011;64453;51.944;9.796;2023-03-01T08:01:15;10.03;;;8.90;;
75818;SDS011;64453;51.944;9.796;2023-03-01T08:03:44;10.93;;;9.83;;
75818;SDS011;64453;51.944;9.796;2023-03-01T08:06:14;10.80;;;9.90;;
75818;SDS011;64453;51.944;9.796;2023-03-01T08:08:43;10.60;;;9.60;;
75818;SDS011;64453;51.944;9.796;2023-03-01T08:11:11;11.30;;;10.20;;
75818;SDS011;64453;51.944;9.796;2023-03-01T08:13:39;10.13;;;9.30;;
75818;SDS011;64453;51.944;9.796;2023-03-01T08:16:07;10.50;;;9.43;;
75818;SDS011;64453;51.944;9.796;2023-03-01T08:18:37;10.30;;;9.43;;
75818;SDS011;64453;51.944;9.796;2023-03-01T08:21:04;10.30;;;9.30;;
75818;SDS011;64453;51.944;9.796;2023-03-01T08:23:34;9.40;;;8.60;;
75818;SDS011;64453;51.944;9.796;2023-03-01T08:26:07;10.10;;;9.20;;
75818;SDS011;64453;51.944;9.796;2023-03-01T08:28:37;10.47;;;9.60;;
75818;SDS011;64453;51.944;9.796;2023-03-01T08:31:12;10.90;;;9.50;;
75818;SDS011;64453;51.944;9.796;2023-03-01T08:33:40;10.53;;;9.60;;
75818;SDS011;64453;51.944;9.796;2023-03-01T08:36:07;10.77;;;9.83;;
75818;SDS011;64453;51.944;9.796;2023-03-01T08:38:36;10.50;;;9.50;;
75818;SDS011;64453;51.944;9.796;2023-03-01T08:41:03;10.17;;;9.27;;
75818;SDS011;64453;51.944;9.796;2023-03-01T08:43:30;10.23;;;9.33;;
75818;SDS011;64453;51.944;9.796;2023-03-01T08:45:57;11.67;;;10.57;;
75818;SDS011;64453;51.944;9.796;2023-03-01T08:48:24;10.40;;;9.47;;
75818;SDS011;64453;51.944;9.796;2023-03-01T08:50:51;12.27;;;10.97;;
75818;SDS011;64453;51.944;9.796;2023-03-01T08:53:18;12.77;;;11.67;;
75818;SDS011;64453;51.944;9.796;2023-03-01T08:55:46;12.87;;;11.67;;
75818;SDS011;64453;51.944;9.796;2023-03-01T08:58:13;12.20;;;11.10;;
75818;SDS011;64453;51.944;9.796;2023-03-01T09:00:39;11.10;;;10.10;;
75818;SDS011;64453;51.944;9.796;2023-03-01T09:03:06;11.03;;;10.13;;
75818;SDS011;64453;51.944;9.796;2023-03-01T09:05:34;10.00;;;9.10;;
75818;SDS011;64453;51.944;9.796;2023-03-01T09:08:01;9.83;;;8.97;;
75818;SDS011;64453;51.944;9.796;2023-03-01T09:10:29;8.90;;;8.10;;
75818;SDS011;64453;51.944;9.796;2023-03-01T09:12:57;9.50;;;8.70;;
75818;SDS011;64453;51.944;9.796;2023-03-01T09:15:24;10.33;;;9.33;;
75818;SDS011;64453;51.944;9.796;2023-03-01T09:17:50;9.03;;;7.93;;
75818;SDS011;64453;51.944;9.796;2023-03-01T09:20:17;8.93;;;8.13;;
75818;SDS011;64453;51.944;9.796;2023-03-01T09:22:44;9.30;;;8.40;;
75818;SDS011;64453;51.944;9.796;2023-03-01T09:25:11;10.13;;;9.07;;
75818;SDS011;64453;51.944;9.796;2023-03-01T09:27:37;8.97;;;8.07;;
75818;SDS011;64453;51.944;9.796;2023-03-01T09:30:06;8.70;;;7.90;;
75818;SDS011;64453;51.944;9.796;2023-03-01T09:32:35;9.57;;;8.60;;
75818;SDS011;64453;51.944;9.796;2023-03-01T09:35:02;9.77;;;8.87;;
75818;SDS011;64453;51.944;9.796;2023-03-01T09:37:33;10.30;;;9.40;;
75818;SDS011;64453;51.944;9.796;2023-03-01T09:40:02;9.80;;;8.90;;
75818;SDS011;64453;51.944;9.796;2023-03-01T09:42:32;9.70;;;8.80;;
75818;SDS011;64453;51.944;9.796;2023-03-01T09:45:01;8.80;;;8.10;;
75818;SDS011;64453;51.944;9.796;2023-03-01T09:47:33;8.90;;;8.10;;
75818;SDS011;64453;51.944;9.796;2023-03-01T09:50:02;7.63;;;6.93;;
75818;SDS011;64453;51.944;9.796;2023-03-01T09:52:36;7.23;;;6.53;;
75818;SDS011;64453;51.944;9.796;2023-03-01T09:55:08;7.13;;;6.53;;
75818;SDS011;64453;51.944;9.796;2023-03-01T09:57:41;6.77;;;6.10;;
75818;SDS011;64453;51.944;9.796;2023-03-01T10:03:11;7.13;;;6.53;;
75818;SDS011;64453;51.944;9.796;2023-03-01T10:05:47;6.57;;;5.97;;
75818;SDS011;64453;51.944;9.796;2023-03-01T10:08:25;6.63;;;6.03;;
75818;SDS011;64453;51.944;9.796;2023-03-01T10:10:58;5.63;;;5.13;;
75818;SDS011;64453;51.944;9.796;2023-03-01T10:13:26;6.20;;;5.67;;
75818;SDS011;64453;51.944;9.796;2023-03-01T10:16:03;5.97;;;5.37;;
75818;SDS011;64453;51.944;9.796;2023-03-01T10:18:38;5.70;;;5.20;;
75818;SDS011;64453;51.944;9.796;2023-03-01T10:21:11;5.60;;;5.20;;
75818;SDS011;64453;51.944;9.796;2023-03-01T10:23:41;5.80;;;5.30;;
75818;SDS011;64453;51.944;9.796;2023-03-01T10:29:07;6.07;;;5.57;;
75818;SDS011;64453;51.944;9.796;2023-03-01T10:31:39;5.83;;;5.30;;
75818;SDS011;64453;51.944;9.796;2023-03-01T10:34:13;6.00;;;5.50;;
75818;SDS011;64453;51.944;9.796;2023-03-01T10:36:43;7.20;;;6.17;;
75818;SDS011;64453;51.944;9.796;2023-03-01T10:39:17;5.80;;;5.30;;
75818;SDS011;64453;51.944;9.796;2023-03-01T10:41:57;5.83;;;5.30;;
75818;SDS011;64453;51.944;9.796;2023-03-01T10:44:36;5.37;;;4.87;;
75818;SDS011;64453;51.944;9.796;2023-03-01T10:47:14;5.30;;;4.90;;
75818;SDS011;64453;51.944;9.796;2023-03-01T10:49:52;5.80;;;5.30;;
75818;SDS011;64453;51.944;9.796;2023-03-01T10:52:26;6.60;;;6.00;;
75818;SDS011;64453;51.944;9.796;2023-03-01T10:54:59;6.00;;;5.47;;
75818;SDS011;64453;51.944;9.796;2023-03-01T10:57:34;5.97;;;5.47;;
75818;SDS011;64453;51.944;9.796;2023-03-01T11:05:56;4.93;;;4.43;;
75818;SDS011;64453;51.944;9.796;2023-03-01T11:08:31;5.60;;;5.10;;
75818;SDS011;64453;51.944;9.796;2023-03-01T11:11:21;5.57;;;5.10;;
75818;SDS011;64453;51.944;9.796;2023-03-01T11:13:53;5.80;;;5.30;;
75818;SDS011;64453;51.944;9.796;2023-03-01T11:16:27;6.30;;;5.37;;
75818;SDS011;64453;51.944;9.796;2023-03-01T11:19:01;5.63;;;5.17;;
75818;SDS011;64453;51.944;9.796;2023-03-01T11:21:42;5.40;;;4.90;;
75818;SDS011;64453;51.944;9.796;2023-03-01T11:24:19;5.60;;;5.10;;
75818;SDS011;64453;51.944;9.796;2023-03-01T11:26:53;4.90;;;4.60;;
75818;SDS011;64453;51.944;9.796;2023-03-01T11:29:25;5.60;;;5.20;;
75818;SDS011;64453;51.944;9.796;2023-03-01T11:31:59;5.83;;;5.43;;
75818;SDS011;64453;51.944;9.796;2023-03-01T11:34:38;5.07;;;4.63;;
75818;SDS011;64453;51.944;9.796;2023-03-01T11:37:12;5.50;;;5.00;;
75818;SDS011;64453;51.944;9.796;2023-03-01T11:39:52;5.83;;;5.33;;
75818;SDS011;64453;51.944;9.796;2023-03-01T11:42:28;5.63;;;5.23;;
75818;SDS011;64453;51.944;9.796;2023-03-01T11:45:08;6.10;;;5.10;;
75818;SDS011;64453;51.944;9.796;2023-03-01T11:47:42;5.63;;;5.13;;
75818;SDS011;64453;51.944;9.796;2023-03-01T11:50:30;5.07;;;4.60;;
75818;SDS011;64453;51.944;9.796;2023-03-01T11:53:12;4.80;;;4.40;;
75818;SDS011;64453;51.944;9.796;2023-03-01T11:56:03;4.73;;;4.33;;
75818;SDS011;64453;51.944;9.796;2023-03-01T11:58:43;5.23;;;4.83;;
75818;SDS011;64453;51.944;9.796;2023-03-01T12:01:28;5.53;;;5.03;;
75818;SDS011;64453;51.944;9.796;2023-03-01T12:07:20;6.60;;;5.70;;
75818;SDS011;64453;51.944;9.796;2023-03-01T12:09:59;5.13;;;4.73;;
75818;SDS011;64453;51.944;9.796;2023-03-01T12:12:49;5.30;;;4.90;;
75818;SDS011;64453;51.944;9.796;2023-03-01T12:15:58;4.50;;;4.20;;
75818;SDS011;64453;51.944;9.796;2023-03-01T12:18:58;5.53;;;4.97;;
75818;SDS011;64453;51.944;9.796;2023-03-01T12:21:45;5.23;;;4.83;;
75818;SDS011;64453;51.944;9.796;2023-03-01T12:24:53;5.83;;;5.40;;
75818;SDS011;64453;51.944;9.796;2023-03-01T12:27:55;8.03;;;7.33;;
75818;SDS011;64453;51.944;9.796;2023-03-01T12:30:42;7.97;;;7.17;;
75818;SDS011;64453;51.944;9.796;2023-03-01T12:33:26;6.10;;;5.40;;
75818;SDS011;64453;51.944;9.796;2023-03-01T12:36:10;5.63;;;5.20;;
75818;SDS011;64453;51.944;9.796;2023-03-01T12:38:57;4.83;;;4.40;;
75818;SDS011;64453;51.944;9.796;2023-03-01T12:41:43;5.27;;;4.87;;
75818;SDS011;64453;51.944;9.796;2023-03-01T12:44:20;11.40;;;10.20;;
75818;SDS011;64453;51.944;9.796;2023-03-01T12:47:04;6.43;;;5.90;;
75818;SDS011;64453;51.944;9.796;2023-03-01T12:49:44;5.30;;;4.80;;
75818;SDS011;64453;51.944;9.796;2023-03-01T12:52:16;4.00;;;3.70;;
75818;SDS011;64453;51.944;9.796;2023-03-01T12:54:51;3.97;;;3.67;;
75818;SDS011;64453;51.944;9.796;2023-03-01T12:57:24;4.30;;;4.00;;
75818;SDS011;64453;51.944;9.796;2023-03-01T13:00:04;4.60;;;4.20;;
75818;SDS011;64453;51.944;9.796;2023-03-01T13:02:45;4.10;;;3.80;;
75818;SDS011;64453;51.944;9.796;2023-03-01T13:05:21;5.53;;;4.60;;
75818;SDS011;64453;51.944;9.796;2023-03-01T13:07:58;5.00;;;4.60;;
75818;SDS011;64453;51.944;9.796;2023-03-01T13:10:35;3.70;;;3.40;;
75818;SDS011;64453;51.944;9.796;2023-03-01T13:13:18;4.00;;;3.70;;
75818;SDS011;64453;51.944;9.796;2023-03-01T13:15:47;4.47;;;4.10;;
75818;SDS011;64453;51.944;9.796;2023-03-01T13:18:27;4.43;;;4.03;;
75818;SDS011;64453;51.944;9.796;2023-03-01T13:20:57;4.50;;;4.20;;
75818;SDS011;64453;51.944;9.796;2023-03-01T13:23:28;5.13;;;4.17;;
75818;SDS011;64453;51.944;9.796;2023-03-01T13:26:06;4.70;;;4.30;;
75818;SDS011;64453;51.944;9.796;2023-03-01T13:28:56;4.50;;;4.20;;
75818;SDS011;64453;51.944;9.796;2023-03-01T13:37:28;4.33;;;4.03;;
75818;SDS011;64453;51.944;9.796;2023-03-01T13:40:05;3.80;;;3.60;;
75818;SDS011;64453;51.944;9.796;2023-03-01T13:43:31;4.00;;;3.70;;
75818;SDS011;64453;51.944;9.796;2023-03-01T13:45:59;5.80;;;4.40;;
75818;SDS011;64453;51.944;9.796;2023-03-01T13:48:33;4.40;;;4.10;;
75818;SDS011;64453;51.944;9.796;2023-03-01T13:51:00;3.97;;;3.70;;
75818;SDS011;64453;51.944;9.796;2023-03-01T13:53:31;4.77;;;4.37;;
75818;SDS011;64453;51.944;9.796;2023-03-01T13:56:06;4.23;;;3.93;;
75818;SDS011;64453;51.944;9.796;2023-03-01T13:58:44;3.87;;;3.57;;
75818;SDS011;64453;51.944;9.796;2023-03-01T14:01:27;4.20;;;3.83;;
75818;SDS011;64453;51.944;9.796;2023-03-01T14:03:56;4.17;;;3.90;;
75818;SDS011;64453;51.944;9.796;2023-03-01T14:06:24;4.30;;;4.00;;
75818;SDS011;64453;51.944;9.796;2023-03-01T14:09:00;4.00;;;3.80;;
75818;SDS011;64453;51.944;9.796;2023-03-01T14:11:48;4.73;;;4.33;;
75818;SDS011;64453;51.944;9.796;2023-03-01T14:14:37;4.00;;;3.70;;
75818;SDS011;64453;51.944;9.796;2023-03-01T14:17:15;4.27;;;3.97;;
75818;SDS011;64453;51.944;9.796;2023-03-01T14:19:59;3.70;;;3.50;;
75818;SDS011;64453;51.944;9.796;2023-03-01T14:22:34;3.77;;;3.47;;
75818;SDS011;64453;51.944;9.796;2023-03-01T14:25:03;4.07;;;3.77;;
75818;SDS011;64453;51.944;9.796;2023-03-01T14:27:45;4.60;;;4.30;;
75818;SDS011;64453;51.944;9.796;2023-03-01T14:30:21;4.03;;;3.73;;
75818;SDS011;64453;51.944;9.796;2023-03-01T14:32:52;7.00;;;3.60;;
75818;SDS011;64453;51.944;9.796;2023-03-01T14:35:22;3.83;;;3.60;;
75818;SDS011;64453;51.944;9.796;2023-03-01T14:37:51;3.53;;;3.33;;
75818;SDS011;64453;51.944;9.796;2023-03-01T14:40:23;4.10;;;3.80;;
75818;SDS011;64453;51.944;9.796;2023-03-01T14:42:55;4.00;;;3.70;;
75818;SDS011;64453;51.944;9.796;2023-03-01T14:45:25;4.47;;;4.10;;
75818;SDS011;64453;51.944;9.796;2023-03-01T14:47:53;4.80;;;4.10;;
75818;SDS011;64453;51.944;9.796;2023-03-01T14:50:23;3.27;;;3.07;;
75818;SDS011;64453;51.944;9.796;2023-03-01T14:52:54;4.00;;;3.70;;
75818;SDS011;64453;51.944;9.796;2023-03-01T14:55:25;3.97;;;3.67;;
75818;SDS011;64453;51.944;9.796;2023-03-01T14:57:58;4.10;;;3.80;;
75818;SDS011;64453;51.944;9.796;2023-03-01T15:00:25;3.50;;;3.30;;
75818;SDS011;64453;51.944;9.796;2023-03-01T15:02:55;3.70;;;3.40;;
75818;SDS011;64453;51.944;9.796;2023-03-01T15:05:34;3.17;;;2.97;;
75818;SDS011;64453;51.944;9.796;2023-03-01T15:08:02;3.43;;;3.23;;
75818;SDS011;64453;51.944;9.796;2023-03-01T15:10:31;3.60;;;3.40;;
75818;SDS011;64453;51.944;9.796;2023-03-01T15:13:11;3.30;;;3.10;;
75818;SDS011;64453;51.944;9.796;2023-03-01T15:15:40;3.10;;;2.90;;
75818;SDS011;64453;51.944;9.796;2023-03-01T15:18:17;3.03;;;2.90;;
75818;SDS011;64453;51.944;9.796;2023-03-01T15:20:46;3.83;;;3.53;;
75818;SDS011;64453;51.944;9.796;2023-03-01T15:23:17;3.80;;;3.50;;
75818;SDS011;64453;51.944;9.796;2023-03-01T15:25:48;3.30;;;3.10;;
75818;SDS011;64453;51.944;9.796;2023-03-01T15:28:23;3.20;;;3.00;;
75818;SDS011;64453;51.944;9.796;2023-03-01T15:30:53;3.60;;;3.30;;